sensor_id;sensor_type;location;lat;lon;timestamp;temperature;humidity
69503;SHT31;56704;54.242;12.442;2024-01-06T00:00:30;-0.66;94.27
69503;SHT31;56704;54.242;12.442;2024-01-06T00:02:57;-0.66;94.30
69503;SHT31;56704;54.242;12.442;2024-01-06T00:05:24;-0.66;94.26
69503;SHT31;56704;54.242;12.442;2024-01-06T00:07:50;-0.68;94.23
69503;SHT31;56704;54.242;12.442;2024-01-06T00:10:17;-0.66;94.25
69503;SHT31;56704;54.242;12.442;2024-01-06T00:12:44;-0.66;94.32
69503;SHT31;56704;54.242;12.442;2024-01-06T00:15:11;-0.65;94.34
69503;SHT31;56704;54.242;12.442;2024-01-06T00:17:39;-0.69;94.28
69503;SHT31;56704;54.242;12.442;2024-01-06T00:20:07;-0.69;94.26
69503;SHT31;56704;54.242;12.442;2024-01-06T00:22:33;-0.68;94.34
69503;SHT31;56704;54.242;12.442;2024-01-06T00:25:00;-0.66;94.34
69503;SHT31;56704;54.242;12.442;2024-01-06T00:27:27;-0.69;94.36
69503;SHT31;56704;54.242;12.442;2024-01-06T00:29:53;-0.70;94.35
69503;SHT31;56704;54.242;12.442;2024-01-06T00:32:20;-0.69;94.36
69503;SHT31;56704;54.242;12.442;2024-01-06T00:34:48;-0.66;94.37
69503;SHT31;56704;54.242;12.442;2024-01-06T00:37:14;-0.69;94.41
69503;SHT31;56704;54.242;12.442;2024-01-06T00:39:41;-0.68;94.40
69503;SHT31;56704;54.242;12.442;2024-01-06T00:42:08;-0.69;94.41
69503;SHT31;56704;54.242;12.442;2024-01-06T00:44:36;-0.68;94.45
69503;SHT31;56704;54.242;12.442;2024-01-06T00:47:02;-0.70;94.47
69503;SHT31;56704;54.242;12.442;2024-01-06T00:49:29;-0.69;94.41
69503;SHT31;56704;54.242;12.442;2024-01-06T00:51:57;-0.70;94.36
69503;SHT31;56704;54.242;12.442;2024-01-06T00:54:24;-0.70;94.38
69503;SHT31;56704;54.242;12.442;2024-01-06T00:56:50;-0.72;94.47
69503;SHT31;56704;54.242;12.442;2024-01-06T00:59:17;-0.70;94.43
69503;SHT31;56704;54.242;12.442;2024-01-06T01:01:43;-0.69;94.45
69503;SHT31;56704;54.242;12.442;2024-01-06T01:04:10;-0.68;94.43
69503;SHT31;56704;54.242;12.442;2024-01-06T01:06:37;-0.69;94.47
69503;SHT31;56704;54.242;12.442;2024-01-06T01:09:05;-0.70;94.49
69503;SHT31;56704;54.242;12.442;2024-01-06T01:11:31;-0.69;94.51
69503;SHT31;56704;54.242;12.442;2024-01-06T01:13:58;-0.70;94.50
69503;SHT31;56704;54.242;12.442;2024-01-06T01:16:25;-0.69;94.53
69503;SHT31;56704;54.242;12.442;2024-01-06T01:18:51;-0.69;94.58
69503;SHT31;56704;54.242;12.442;2024-01-06T01:21:18;-0.69;94.54
69503;SHT31;56704;54.242;12.442;2024-01-06T01:23:44;-0.70;94.58
69503;SHT31;56704;54.242;12.442;2024-01-06T01:26:12;-0.69;94.54
69503;SHT31;56704;54.242;12.442;2024-01-06T01:28:39;-0.69;94.54
69503;SHT31;56704;54.242;12.442;2024-01-06T01:31:05;-0.72;94.56
69503;SHT31;56704;54.242;12.442;2024-01-06T01:33:32;-0.70;94.59
69503;SHT31;56704;54.242;12.442;2024-01-06T01:35:59;-0.70;94.58
69503;SHT31;56704;54.242;12.442;2024-01-06T01:38:25;-0.70;94.59
69503;SHT31;56704;54.242;12.442;2024-01-06T01:40:52;-0.69;94.65
69503;SHT31;56704;54.242;12.442;2024-01-06T01:43:20;-0.69;94.62
69503;SHT31;56704;54.242;12.442;2024-01-06T01:45:50;-0.70;94.61
69503;SHT31;56704;54.242;12.442;2024-01-06T01:48:19;-0.72;94.60
69503;SHT31;56704;54.242;12.442;2024-01-06T01:50:46;-0.68;94.65
69503;SHT31;56704;54.242;12.442;2024-01-06T01:53:13;-0.66;94.69
69503;SHT31;56704;54.242;12.442;2024-01-06T01:55:41;-0.68;94.69
69503;SHT31;56704;54.242;12.442;2024-01-06T01:58:09;-0.69;94.72
69503;SHT31;56704;54.242;12.442;2024-01-06T02:00:38;-0.68;94.68
69503;SHT31;56704;54.242;12.442;2024-01-06T02:03:05;-0.69;94.69
69503;SHT31;56704;54.242;12.442;2024-01-06T02:05:31;-0.65;94.70
69503;SHT31;56704;54.242;12.442;2024-01-06T02:07:58;-0.63;94.72
69503;SHT31;56704;54.242;12.442;2024-01-06T02:10:25;-0.65;94.71
69503;SHT31;56704;54.242;12.442;2024-01-06T02:12:52;-0.68;94.70
69503;SHT31;56704;54.242;12.442;2024-01-06T02:15:18;-0.66;94.74
69503;SHT31;56704;54.242;12.442;2024-01-06T02:17:46;-0.66;94.73
69503;SHT31;56704;54.242;12.442;2024-01-06T02:20:14;-0.65;94.74
69503;SHT31;56704;54.242;12.442;2024-01-06T02:22:46;-0.65;94.77
69503;SHT31;56704;54.242;12.442;2024-01-06T02:25:12;-0.68;94.72
69503;SHT31;56704;54.242;12.442;2024-01-06T02:27:39;-0.65;94.75
69503;SHT31;56704;54.242;12.442;2024-01-06T02:30:07;-0.63;94.75
69503;SHT31;56704;54.242;12.442;2024-01-06T02:32:33;-0.65;94.79
69503;SHT31;56704;54.242;12.442;2024-01-06T02:35:00;-0.65;94.80
69503;SHT31;56704;54.242;12.442;2024-01-06T02:37:27;-0.65;94.75
69503;SHT31;56704;54.242;12.442;2024-01-06T02:39:54;-0.63;94.78
69503;SHT31;56704;54.242;12.442;2024-01-06T02:42:21;-0.66;94.77
69503;SHT31;56704;54.242;12.442;2024-01-06T02:44:49;-0.63;94.78
69503;SHT31;56704;54.242;12.442;2024-01-06T02:47:16;-0.63;94.78
69503;SHT31;56704;54.242;12.442;2024-01-06T02:49:42;-0.63;94.75
69503;SHT31;56704;54.242;12.442;2024-01-06T02:52:09;-0.66;94.77
69503;SHT31;56704;54.242;12.442;2024-01-06T02:54:35;-0.66;94.79
69503;SHT31;56704;54.242;12.442;2024-01-06T02:57:04;-0.70;94.74
69503;SHT31;56704;54.242;12.442;2024-01-06T02:59:30;-0.69;94.77
69503;SHT31;56704;54.242;12.442;2024-01-06T03:01:58;-0.70;94.74
69503;SHT31;56704;54.242;12.442;2024-01-06T03:04:24;-0.69;94.72
69503;SHT31;56704;54.242;12.442;2024-01-06T03:06:51;-0.73;94.75
69503;SHT31;56704;54.242;12.442;2024-01-06T03:09:19;-0.74;94.76
69503;SHT31;56704;54.242;12.442;2024-01-06T03:11:45;-0.74;94.77
69503;SHT31;56704;54.242;12.442;2024-01-06T03:14:13;-0.73;94.83
69503;SHT31;56704;54.242;12.442;2024-01-06T03:16:40;-0.74;94.81
69503;SHT31;56704;54.242;12.442;2024-01-06T03:19:06;-0.74;94.85
69503;SHT31;56704;54.242;12.442;2024-01-06T03:21:33;-0.73;94.88
69503;SHT31;56704;54.242;12.442;2024-01-06T03:24:00;-0.73;94.89
69503;SHT31;56704;54.242;12.442;2024-01-06T03:26:26;-0.73;94.89
69503;SHT31;56704;54.242;12.442;2024-01-06T03:28:54;-0.72;94.90
69503;SHT31;56704;54.242;12.442;2024-01-06T03:31:22;-0.73;94.89
69503;SHT31;56704;54.242;12.442;2024-01-06T03:33:49;-0.77;94.89
69503;SHT31;56704;54.242;12.442;2024-01-06T03:36:16;-0.76;94.88
69503;SHT31;56704;54.242;12.442;2024-01-06T03:38:43;-0.77;94.91
69503;SHT31;56704;54.242;12.442;2024-01-06T03:41:10;-0.74;94.93
69503;SHT31;56704;54.242;12.442;2024-01-06T03:43:36;-0.74;94.90
69503;SHT31;56704;54.242;12.442;2024-01-06T03:46:03;-0.76;94.92
69503;SHT31;56704;54.242;12.442;2024-01-06T03:48:32;-0.76;94.95
69503;SHT31;56704;54.242;12.442;2024-01-06T03:50:59;-0.76;94.95
69503;SHT31;56704;54.242;12.442;2024-01-06T03:53:25;-0.76;94.90
69503;SHT31;56704;54.242;12.442;2024-01-06T03:55:52;-0.77;94.92
69503;SHT31;56704;54.242;12.442;2024-01-06T03:58:18;-0.79;94.94
69503;SHT31;56704;54.242;12.442;2024-01-06T04:00:45;-0.77;94.94
69503;SHT31;56704;54.242;12.442;2024-01-06T04:03:11;-0.83;94.95
69503;SHT31;56704;54.242;12.442;2024-01-06T04:05:39;-0.83;94.90
69503;SHT31;56704;54.242;12.442;2024-01-06T04:08:06;-0.83;94.95
69503;SHT31;56704;54.242;12.442;2024-01-06T04:10:33;-0.83;94.95
69503;SHT31;56704;54.242;12.442;2024-01-06T04:13:00;-0.86;94.94
69503;SHT31;56704;54.242;12.442;2024-01-06T04:15:26;-0.87;94.93
69503;SHT31;56704;54.242;12.442;2024-01-06T04:17:54;-0.84;94.94
69503;SHT31;56704;54.242;12.442;2024-01-06T04:20:21;-0.87;94.98
69503;SHT31;56704;54.242;12.442;2024-01-06T04:22:49;-0.90;94.98
69503;SHT31;56704;54.242;12.442;2024-01-06T04:25:15;-0.86;95.02
69503;SHT31;56704;54.242;12.442;2024-01-06T04:27:42;-0.87;95.04
69503;SHT31;56704;54.242;12.442;2024-01-06T04:30:11;-0.87;95.04
69503;SHT31;56704;54.242;12.442;2024-01-06T04:32:38;-0.89;95.05
69503;SHT31;56704;54.242;12.442;2024-01-06T04:35:05;-0.86;95.10
69503;SHT31;56704;54.242;12.442;2024-01-06T04:37:32;-0.83;95.10
69503;SHT31;56704;54.242;12.442;2024-01-06T04:40:00;-0.84;95.13
69503;SHT31;56704;54.242;12.442;2024-01-06T04:42:27;-0.86;95.11
69503;SHT31;56704;54.242;12.442;2024-01-06T04:44:53;-0.86;95.10
69503;SHT31;56704;54.242;12.442;2024-01-06T04:47:20;-0.83;95.13
69503;SHT31;56704;54.242;12.442;2024-01-06T04:49:47;-0.84;95.10
69503;SHT31;56704;54.242;12.442;2024-01-06T04:52:13;-0.86;95.15
69503;SHT31;56704;54.242;12.442;2024-01-06T04:54:40;-0.86;95.12
69503;SHT31;56704;54.242;12.442;2024-01-06T04:57:08;-0.86;95.13
69503;SHT31;56704;54.242;12.442;2024-01-06T04:59:34;-0.82;95.18
69503;SHT31;56704;54.242;12.442;2024-01-06T05:02:01;-0.83;95.20
69503;SHT31;56704;54.242;12.442;2024-01-06T05:04:28;-0.82;95.18
69503;SHT31;56704;54.242;12.442;2024-01-06T05:06:56;-0.82;95.15
69503;SHT31;56704;54.242;12.442;2024-01-06T05:09:22;-0.80;95.19
69503;SHT31;56704;54.242;12.442;2024-01-06T05:11:49;-0.83;95.16
69503;SHT31;56704;54.242;12.442;2024-01-06T05:14:17;-0.83;95.15
69503;SHT31;56704;54.242;12.442;2024-01-06T05:16:43;-0.87;95.15
69503;SHT31;56704;54.242;12.442;2024-01-06T05:19:10;-0.83;95.19
69503;SHT31;56704;54.242;12.442;2024-01-06T05:21:37;-0.82;95.20
69503;SHT31;56704;54.242;12.442;2024-01-06T05:24:04;-0.80;95.18
69503;SHT31;56704;54.242;12.442;2024-01-06T05:26:30;-0.77;95.23
69503;SHT31;56704;54.242;12.442;2024-01-06T05:28:59;-0.79;95.21
69503;SHT31;56704;54.242;12.442;2024-01-06T05:31:27;-0.77;95.21
69503;SHT31;56704;54.242;12.442;2024-01-06T05:33:53;-0.76;95.17
69503;SHT31;56704;54.242;12.442;2024-01-06T05:36:20;-0.74;95.20
69503;SHT31;56704;54.242;12.442;2024-01-06T05:38:46;-0.76;95.21
69503;SHT31;56704;54.242;12.442;2024-01-06T05:41:13;-0.74;95.21
69503;SHT31;56704;54.242;12.442;2024-01-06T05:43:40;-0.73;95.18
69503;SHT31;56704;54.242;12.442;2024-01-06T05:46:07;-0.72;95.18
69503;SHT31;56704;54.242;12.442;2024-01-06T05:48:35;-0.70;95.20
69503;SHT31;56704;54.242;12.442;2024-01-06T05:51:01;-0.72;95.20
69503;SHT31;56704;54.242;12.442;2024-01-06T05:53:30;-0.69;95.22
69503;SHT31;56704;54.242;12.442;2024-01-06T05:55:57;-0.69;95.21
69503;SHT31;56704;54.242;12.442;2024-01-06T05:58:24;-0.69;95.16
69503;SHT31;56704;54.242;12.442;2024-01-06T06:00:51;-0.65;95.22
69503;SHT31;56704;54.242;12.442;2024-01-06T06:03:17;-0.72;95.12
69503;SHT31;56704;54.242;12.442;2024-01-06T06:05:45;-0.66;95.17
69503;SHT31;56704;54.242;12.442;2024-01-06T06:08:12;-0.68;95.18
69503;SHT31;56704;54.242;12.442;2024-01-06T06:10:39;-0.68;95.20
69503;SHT31;56704;54.242;12.442;2024-01-06T06:13:25;-0.66;95.17
69503;SHT31;56704;54.242;12.442;2024-01-06T06:15:51;-0.66;95.18
69503;SHT31;56704;54.242;12.442;2024-01-06T06:18:18;-0.62;95.20
69503;SHT31;56704;54.242;12.442;2024-01-06T06:20:46;-0.66;95.15
69503;SHT31;56704;54.242;12.442;2024-01-06T06:23:13;-0.63;95.16
69503;SHT31;56704;54.242;12.442;2024-01-06T06:25:39;-0.61;95.14
69503;SHT31;56704;54.242;12.442;2024-01-06T06:28:06;-0.59;95.15
69503;SHT31;56704;54.242;12.442;2024-01-06T06:30:32;-0.61;95.18
69503;SHT31;56704;54.242;12.442;2024-01-06T06:32:59;-0.58;95.17
69503;SHT31;56704;54.242;12.442;2024-01-06T06:35:26;-0.55;95.16
69503;SHT31;56704;54.242;12.442;2024-01-06T06:37:54;-0.58;95.14
69503;SHT31;56704;54.242;12.442;2024-01-06T06:40:20;-0.58;95.13
69503;SHT31;56704;54.242;12.442;2024-01-06T06:42:47;-0.56;95.11
69503;SHT31;56704;54.242;12.442;2024-01-06T06:45:14;-0.53;95.11
69503;SHT31;56704;54.242;12.442;2024-01-06T06:47:41;-0.55;95.12
69503;SHT31;56704;54.242;12.442;2024-01-06T06:50:08;-0.55;95.11
69503;SHT31;56704;54.242;12.442;2024-01-06T06:52:35;-0.51;95.05
69503;SHT31;56704;54.242;12.442;2024-01-06T06:55:03;-0.51;95.10
69503;SHT31;56704;54.242;12.442;2024-01-06T06:57:30;-0.49;95.06
69503;SHT31;56704;54.242;12.442;2024-01-06T06:59:57;-0.52;95.06
69503;SHT31;56704;54.242;12.442;2024-01-06T07:02:25;-0.52;95.04
69503;SHT31;56704;54.242;12.442;2024-01-06T07:04:52;-0.53;95.04
69503;SHT31;56704;54.242;12.442;2024-01-06T07:07:19;-0.53;95.03
69503;SHT31;56704;54.242;12.442;2024-01-06T07:09:45;-0.52;94.98
69503;SHT31;56704;54.242;12.442;2024-01-06T07:12:13;-0.51;95.07
69503;SHT31;56704;54.242;12.442;2024-01-06T07:14:40;-0.46;95.04
69503;SHT31;56704;54.242;12.442;2024-01-06T07:17:06;-0.49;94.98
69503;SHT31;56704;54.242;12.442;2024-01-06T07:19:34;-0.51;94.98
69503;SHT31;56704;54.242;12.442;2024-01-06T07:22:01;-0.52;94.99
69503;SHT31;56704;54.242;12.442;2024-01-06T07:24:27;-0.51;94.94
69503;SHT31;56704;54.242;12.442;2024-01-06T07:26:54;-0.58;94.98
69503;SHT31;56704;54.242;12.442;2024-01-06T07:29:22;-0.58;94.93
69503;SHT31;56704;54.242;12.442;2024-01-06T07:31:49;-0.58;94.92
69503;SHT31;56704;54.242;12.442;2024-01-06T07:34:15;-0.53;94.96
69503;SHT31;56704;54.242;12.442;2024-01-06T07:36:42;-0.53;94.88
69503;SHT31;56704;54.242;12.442;2024-01-06T07:39:08;-0.51;94.89
69503;SHT31;56704;54.242;12.442;2024-01-06T07:41:35;-0.56;94.89
69503;SHT31;56704;54.242;12.442;2024-01-06T07:44:02;-0.55;94.89
69503;SHT31;56704;54.242;12.442;2024-01-06T07:46:30;-0.56;94.88
69503;SHT31;56704;54.242;12.442;2024-01-06T07:48:59;-0.52;94.83
69503;SHT31;56704;54.242;12.442;2024-01-06T07:51:26;-0.51;94.84
69503;SHT31;56704;54.242;12.442;2024-01-06T07:53:52;-0.51;94.83
69503;SHT31;56704;54.242;12.442;2024-01-06T07:56:19;-0.49;94.82
69503;SHT31;56704;54.242;12.442;2024-01-06T07:58:47;-0.48;94.76
69503;SHT31;56704;54.242;12.442;2024-01-06T08:01:13;-0.46;94.81
69503;SHT31;56704;54.242;12.442;2024-01-06T08:03:41;-0.48;94.81
69503;SHT31;56704;54.242;12.442;2024-01-06T08:06:08;-0.45;94.76
69503;SHT31;56704;54.242;12.442;2024-01-06T08:08:35;-0.42;94.76
69503;SHT31;56704;54.242;12.442;2024-01-06T08:11:02;-0.39;94.70
69503;SHT31;56704;54.242;12.442;2024-01-06T08:13:28;-0.42;94.69
69503;SHT31;56704;54.242;12.442;2024-01-06T08:15:55;-0.43;94.70
69503;SHT31;56704;54.242;12.442;2024-01-06T08:18:21;-0.38;94.69
69503;SHT31;56704;54.242;12.442;2024-01-06T08:20:50;-0.39;94.66
69503;SHT31;56704;54.242;12.442;2024-01-06T08:23:17;-0.39;94.64
69503;SHT31;56704;54.242;12.442;2024-01-06T08:25:45;-0.38;94.61
69503;SHT31;56704;54.242;12.442;2024-01-06T08:28:12;-0.36;94.65
69503;SHT31;56704;54.242;12.442;2024-01-06T08:30:40;-0.36;94.63
69503;SHT31;56704;54.242;12.442;2024-01-06T08:33:06;-0.33;94.56
69503;SHT31;56704;54.242;12.442;2024-01-06T08:35:33;-0.38;94.54
69503;SHT31;56704;54.242;12.442;2024-01-06T08:38:06;-0.35;94.65
69503;SHT31;56704;54.242;12.442;2024-01-06T08:40:33;-0.29;94.72
69503;SHT31;56704;54.242;12.442;2024-01-06T08:43:00;-0.26;94.70
69503;SHT31;56704;54.242;12.442;2024-01-06T08:45:26;-0.26;94.62
69503;SHT31;56704;54.242;12.442;2024-01-06T08:47:53;-0.26;94.59
69503;SHT31;56704;54.242;12.442;2024-01-06T08:50:19;-0.21;94.57
69503;SHT31;56704;54.242;12.442;2024-01-06T08:52:46;-0.15;94.53
69503;SHT31;56704;54.242;12.442;2024-01-06T08:55:14;-0.14;94.53
69503;SHT31;56704;54.242;12.442;2024-01-06T08:57:41;-0.14;94.47
69503;SHT31;56704;54.242;12.442;2024-01-06T09:00:08;-0.12;94.44
69503;SHT31;56704;54.242;12.442;2024-01-06T09:02:36;-0.12;94.33
69503;SHT31;56704;54.242;12.442;2024-01-06T09:05:03;-0.14;94.29
69503;SHT31;56704;54.242;12.442;2024-01-06T09:07:30;-0.10;94.28
69503;SHT31;56704;54.242;12.442;2024-01-06T09:09:57;-0.11;94.25
69503;SHT31;56704;54.242;12.442;2024-01-06T09:12:26;-0.05;94.24
69503;SHT31;56704;54.242;12.442;2024-01-06T09:14:52;-0.10;94.18
69503;SHT31;56704;54.242;12.442;2024-01-06T09:17:19;-0.12;94.20
69503;SHT31;56704;54.242;12.442;2024-01-06T09:19:45;-0.10;94.21
69503;SHT31;56704;54.242;12.442;2024-01-06T09:22:13;-0.08;94.15
69503;SHT31;56704;54.242;12.442;2024-01-06T09:24:40;-0.04;94.12
69503;SHT31;56704;54.242;12.442;2024-01-06T09:27:06;-0.05;94.10
69503;SHT31;56704;54.242;12.442;2024-01-06T09:29:34;-0.02;94.09
69503;SHT31;56704;54.242;12.442;2024-01-06T09:32:01;-0.02;94.05
69503;SHT31;56704;54.242;12.442;2024-01-06T09:34:28;0.00;94.01
69503;SHT31;56704;54.242;12.442;2024-01-06T09:36:54;-0.04;93.94
69503;SHT31;56704;54.242;12.442;2024-01-06T09:39:21;-0.10;93.87
69503;SHT31;56704;54.242;12.442;2024-01-06T09:41:47;-0.08;93.92
69503;SHT31;56704;54.242;12.442;2024-01-06T09:44:14;-0.05;93.96
69503;SHT31;56704;54.242;12.442;2024-01-06T09:46:42;-0.02;94.01
69503;SHT31;56704;54.242;12.442;2024-01-06T09:49:09;-0.01;94.00
69503;SHT31;56704;54.242;12.442;2024-01-06T09:51:36;0.03;93.98
69503;SHT31;56704;54.242;12.442;2024-01-06T09:54:07;0.02;93.95
69503;SHT31;56704;54.242;12.442;2024-01-06T09:56:35;0.02;93.88
69503;SHT31;56704;54.242;12.442;2024-01-06T09:59:01;0.03;93.85
69503;SHT31;56704;54.242;12.442;2024-01-06T10:01:29;-0.01;93.84
69503;SHT31;56704;54.242;12.442;2024-01-06T10:03:57;-0.01;93.87
69503;SHT31;56704;54.242;12.442;2024-01-06T10:06:23;-0.02;93.88
69503;SHT31;56704;54.242;12.442;2024-01-06T10:08:51;0.00;93.86
69503;SHT31;56704;54.242;12.442;2024-01-06T10:11:19;0.02;93.84
69503;SHT31;56704;54.242;12.442;2024-01-06T10:13:48;-0.01;93.82
69503;SHT31;56704;54.242;12.442;2024-01-06T10:16:15;0.00;93.85
69503;SHT31;56704;54.242;12.442;2024-01-06T10:18:41;0.06;93.77
69503;SHT31;56704;54.242;12.442;2024-01-06T10:21:11;0.03;93.76
69503;SHT31;56704;54.242;12.442;2024-01-06T10:23:39;0.06;93.77
69503;SHT31;56704;54.242;12.442;2024-01-06T10:26:12;0.09;93.75
69503;SHT31;56704;54.242;12.442;2024-01-06T10:28:39;0.12;93.82
69503;SHT31;56704;54.242;12.442;2024-01-06T10:31:08;0.12;93.81
69503;SHT31;56704;54.242;12.442;2024-01-06T10:33:35;0.14;93.78
69503;SHT31;56704;54.242;12.442;2024-01-06T10:36:03;0.16;93.75
69503;SHT31;56704;54.242;12.442;2024-01-06T10:38:32;0.13;93.70
69503;SHT31;56704;54.242;12.442;2024-01-06T10:41:01;0.13;93.67
69503;SHT31;56704;54.242;12.442;2024-01-06T10:43:32;0.14;93.64
69503;SHT31;56704;54.242;12.442;2024-01-06T10:46:02;0.16;93.62
69503;SHT31;56704;54.242;12.442;2024-01-06T10:48:32;0.16;93.60
69503;SHT31;56704;54.242;12.442;2024-01-06T10:51:00;0.14;93.63
69503;SHT31;56704;54.242;12.442;2024-01-06T10:53:28;0.17;93.61
69503;SHT31;56704;54.242;12.442;2024-01-06T10:55:57;0.17;93.58
69503;SHT31;56704;54.242;12.442;2024-01-06T10:58:24;0.17;93.61
69503;SHT31;56704;54.242;12.442;2024-01-06T11:00:51;0.19;93.60
69503;SHT31;56704;54.242;12.442;2024-01-06T11:03:17;0.24;93.57
69503;SHT31;56704;54.242;12.442;2024-01-06T11:05:45;0.24;93.57
69503;SHT31;56704;54.242;12.442;2024-01-06T11:08:12;0.24;93.52
69503;SHT31;56704;54.242;12.442;2024-01-06T11:10:39;0.24;93.52
69503;SHT31;56704;54.242;12.442;2024-01-06T11:13:10;0.27;93.45
69503;SHT31;56704;54.242;12.442;2024-01-06T11:15:44;0.27;93.46
69503;SHT31;56704;54.242;12.442;2024-01-06T11:18:34;0.27;93.44
69503;SHT31;56704;54.242;12.442;2024-01-06T11:21:19;0.36;93.64
69503;SHT31;56704;54.242;12.442;2024-01-06T11:24:23;0.36;93.57
69503;SHT31;56704;54.242;12.442;2024-01-06T11:26:55;0.36;93.49
69503;SHT31;56704;54.242;12.442;2024-01-06T11:29:23;0.37;93.45
69503;SHT31;56704;54.242;12.442;2024-01-06T11:32:17;0.39;93.44
69503;SHT31;56704;54.242;12.442;2024-01-06T11:34:48;0.39;93.33
69503;SHT31;56704;54.242;12.442;2024-01-06T11:37:18;0.34;93.36
69503;SHT31;56704;54.242;12.442;2024-01-06T11:39:44;0.36;93.40
69503;SHT31;56704;54.242;12.442;2024-01-06T11:42:11;0.37;93.33
69503;SHT31;56704;54.242;12.442;2024-01-06T11:44:41;0.40;93.40
69503;SHT31;56704;54.242;12.442;2024-01-06T11:47:10;0.41;93.37
69503;SHT31;56704;54.242;12.442;2024-01-06T11:49:38;0.49;93.28
69503;SHT31;56704;54.242;12.442;2024-01-06T11:52:05;0.40;93.24
69503;SHT31;56704;54.242;12.442;2024-01-06T11:54:32;0.27;93.17
69503;SHT31;56704;54.242;12.442;2024-01-06T11:56:59;0.26;93.12
69503;SHT31;56704;54.242;12.442;2024-01-06T11:59:25;0.27;93.09
69503;SHT31;56704;54.242;12.442;2024-01-06T12:01:53;0.21;93.10
69503;SHT31;56704;54.242;12.442;2024-01-06T12:04:20;0.17;93.13
69503;SHT31;56704;54.242;12.442;2024-01-06T12:06:47;0.14;93.16
69503;SHT31;56704;54.242;12.442;2024-01-06T12:09:17;0.13;93.15
69503;SHT31;56704;54.242;12.442;2024-01-06T12:11:44;0.10;93.16
69503;SHT31;56704;54.242;12.442;2024-01-06T12:14:12;0.13;93.18
69503;SHT31;56704;54.242;12.442;2024-01-06T12:16:38;0.14;93.17
69503;SHT31;56704;54.242;12.442;2024-01-06T12:19:07;0.13;93.19
69503;SHT31;56704;54.242;12.442;2024-01-06T12:21:33;0.14;93.14
69503;SHT31;56704;54.242;12.442;2024-01-06T12:24:19;0.10;93.19
69503;SHT31;56704;54.242;12.442;2024-01-06T12:26:47;0.12;93.18
69503;SHT31;56704;54.242;12.442;2024-01-06T12:29:14;0.10;93.19
69503;SHT31;56704;54.242;12.442;2024-01-06T12:31:41;0.09;93.18
69503;SHT31;56704;54.242;12.442;2024-01-06T12:34:10;0.07;93.19
69503;SHT31;56704;54.242;12.442;2024-01-06T12:36:38;0.05;93.19
69503;SHT31;56704;54.242;12.442;2024-01-06T12:39:05;0.03;93.13
69503;SHT31;56704;54.242;12.442;2024-01-06T12:41:31;0.05;93.15
69503;SHT31;56704;54.242;12.442;2024-01-06T12:43:59;0.05;93.16
69503;SHT31;56704;54.242;12.442;2024-01-06T12:46:27;0.06;93.14
69503;SHT31;56704;54.242;12.442;2024-01-06T12:48:53;0.06;93.17
69503;SHT31;56704;54.242;12.442;2024-01-06T12:51:21;0.03;93.13
69503;SHT31;56704;54.242;12.442;2024-01-06T12:53:48;0.05;93.12
69503;SHT31;56704;54.242;12.442;2024-01-06T12:56:15;0.03;93.08
69503;SHT31;56704;54.242;12.442;2024-01-06T12:58:42;0.02;93.06
69503;SHT31;56704;54.242;12.442;2024-01-06T13:01:09;0.02;93.03
69503;SHT31;56704;54.242;12.442;2024-01-06T13:03:36;0.02;92.95
69503;SHT31;56704;54.242;12.442;2024-01-06T13:06:04;-0.02;92.97
69503;SHT31;56704;54.242;12.442;2024-01-06T13:08:32;-0.04;93.00
69503;SHT31;56704;54.242;12.442;2024-01-06T13:10:59;-0.05;92.95
69503;SHT31;56704;54.242;12.442;2024-01-06T13:13:26;-0.10;92.89
69503;SHT31;56704;54.242;12.442;2024-01-06T13:15:52;-0.10;92.85
69503;SHT31;56704;54.242;12.442;2024-01-06T13:18:19;-0.07;92.86
69503;SHT31;56704;54.242;12.442;2024-01-06T13:20:45;-0.05;92.82
69503;SHT31;56704;54.242;12.442;2024-01-06T13:23:12;-0.08;92.77
69503;SHT31;56704;54.242;12.442;2024-01-06T13:25:40;-0.08;92.72
69503;SHT31;56704;54.242;12.442;2024-01-06T13:28:07;-0.07;92.72
69503;SHT31;56704;54.242;12.442;2024-01-06T13:30:34;-0.05;92.72
69503;SHT31;56704;54.242;12.442;2024-01-06T13:33:01;-0.08;92.68
69503;SHT31;56704;54.242;12.442;2024-01-06T13:35:28;-0.11;92.65
69503;SHT31;56704;54.242;12.442;2024-01-06T13:37:55;-0.11;92.57
69503;SHT31;56704;54.242;12.442;2024-01-06T13:40:22;-0.10;92.56
69503;SHT31;56704;54.242;12.442;2024-01-06T13:42:51;-0.11;92.59
69503;SHT31;56704;54.242;12.442;2024-01-06T13:45:18;-0.11;92.52
69503;SHT31;56704;54.242;12.442;2024-01-06T13:47:45;-0.10;92.52
69503;SHT31;56704;54.242;12.442;2024-01-06T13:50:13;-0.11;92.46
69503;SHT31;56704;54.242;12.442;2024-01-06T13:52:50;-0.08;92.49
69503;SHT31;56704;54.242;12.442;2024-01-06T13:55:17;-0.04;92.56
69503;SHT31;56704;54.242;12.442;2024-01-06T13:57:43;-0.04;92.55
69503;SHT31;56704;54.242;12.442;2024-01-06T14:00:11;0.09;92.68
69503;SHT31;56704;54.242;12.442;2024-01-06T14:02:40;0.06;92.49
69503;SHT31;56704;54.242;12.442;2024-01-06T14:05:07;-0.02;92.37
69503;SHT31;56704;54.242;12.442;2024-01-06T14:07:35;-0.02;92.37
69503;SHT31;56704;54.242;12.442;2024-01-06T14:10:05;-0.05;92.36
69503;SHT31;56704;54.242;12.442;2024-01-06T14:12:33;-0.11;92.38
69503;SHT31;56704;54.242;12.442;2024-01-06T14:14:59;-0.14;92.38
69503;SHT31;56704;54.242;12.442;2024-01-06T14:17:26;-0.21;92.44
69503;SHT31;56704;54.242;12.442;2024-01-06T14:19:53;-0.15;92.45
69503;SHT31;56704;54.242;12.442;2024-01-06T14:22:20;-0.21;92.49
69503;SHT31;56704;54.242;12.442;2024-01-06T14:24:46;-0.23;92.47
69503;SHT31;56704;54.242;12.442;2024-01-06T14:27:14;-0.22;92.49
69503;SHT31;56704;54.242;12.442;2024-01-06T14:29:41;-0.21;92.50
69503;SHT31;56704;54.242;12.442;2024-01-06T14:32:08;-0.21;92.52
69503;SHT31;56704;54.242;12.442;2024-01-06T14:34:34;-0.22;92.54
69503;SHT31;56704;54.242;12.442;2024-01-06T14:37:01;-0.23;92.58
69503;SHT31;56704;54.242;12.442;2024-01-06T14:39:27;-0.22;92.58
69503;SHT31;56704;54.242;12.442;2024-01-06T14:41:54;-0.25;92.58
69503;SHT31;56704;54.242;12.442;2024-01-06T14:44:22;-0.28;92.60
69503;SHT31;56704;54.242;12.442;2024-01-06T14:46:49;-0.29;92.59
69503;SHT31;56704;54.242;12.442;2024-01-06T14:49:17;-0.33;92.57
69503;SHT31;56704;54.242;12.442;2024-01-06T14:51:43;-0.33;92.59
69503;SHT31;56704;54.242;12.442;2024-01-06T14:54:10;-0.36;92.59
69503;SHT31;56704;54.242;12.442;2024-01-06T14:56:37;-0.41;92.53
69503;SHT31;56704;54.242;12.442;2024-01-06T14:59:05;-0.39;92.54
69503;SHT31;56704;54.242;12.442;2024-01-06T15:01:33;-0.42;92.60
69503;SHT31;56704;54.242;12.442;2024-01-06T15:04:00;-0.42;92.59
69503;SHT31;56704;54.242;12.442;2024-01-06T15:06:26;-0.45;92.58
69503;SHT31;56704;54.242;12.442;2024-01-06T15:08:53;-0.42;92.69
69503;SHT31;56704;54.242;12.442;2024-01-06T15:11:20;-0.43;92.64
69503;SHT31;56704;54.242;12.442;2024-01-06T15:13:47;-0.45;92.62
69503;SHT31;56704;54.242;12.442;2024-01-06T15:16:13;-0.42;92.62
69503;SHT31;56704;54.242;12.442;2024-01-06T15:18:41;-0.45;92.59
69503;SHT31;56704;54.242;12.442;2024-01-06T15:21:08;-0.45;92.61